createdAt,value
2019-02-10T00:01:55.993Z,2.69
2019-02-10T00:04:28.910Z,2.84
2019-02-10T00:07:01.323Z,2.75
2019-02-10T00:09:33.391Z,2.94
2019-02-10T00:12:06.236Z,3.02
2019-02-10T00:14:38.619Z,3.15
2019-02-10T00:17:10.831Z,3.05
2019-02-10T00:19:43.187Z,3.19
2019-02-10T00:22:16.686Z,3.20
2019-02-10T00:24:49.500Z,3.12
2019-02-10T00:27:21.657Z,3.18
2019-02-10T00:29:54.172Z,3.20
2019-02-10T00:32:26.888Z,3.22
2019-02-10T00:34:59.238Z,3.19
2019-02-10T00:37:31.322Z,3.18
2019-02-10T00:40:03.790Z,3.15
2019-02-10T00:42:36.153Z,3.15
2019-02-10T00:45:08.583Z,3.17
2019-02-10T00:47:40.882Z,3.04
2019-02-10T00:50:12.954Z,3.07
2019-02-10T00:52:45.056Z,2.94
2019-02-10T00:55:17.169Z,3.02
2019-02-10T00:57:49.392Z,3.04
2019-02-10T01:00:21.846Z,3.02
2019-02-10T01:02:54.189Z,2.91
2019-02-10T01:05:26.298Z,2.74
2019-02-10T01:07:58.579Z,2.74
2019-02-10T01:10:30.928Z,2.67
2019-02-10T01:13:03.258Z,2.60
2019-02-10T01:15:35.601Z,2.71
2019-02-10T01:18:07.785Z,2.71
2019-02-10T01:20:39.877Z,2.74
2019-02-10T01:23:12.664Z,2.68
2019-02-10T01:25:45.415Z,2.57
2019-02-10T01:28:18.090Z,2.48
2019-02-10T01:30:50.715Z,2.58
2019-02-10T01:33:23.048Z,2.69
2019-02-10T01:35:55.112Z,2.77
2019-02-10T01:38:28.138Z,2.97
2019-02-10T01:41:01.215Z,2.83
2019-02-10T01:43:34.049Z,2.83
2019-02-10T01:46:07.102Z,3.00
2019-02-10T01:48:39.458Z,2.83
2019-02-10T01:51:11.830Z,2.79
2019-02-10T01:53:44.576Z,2.88
2019-02-10T01:56:16.925Z,2.86
2019-02-10T01:58:49.150Z,2.92
2019-02-10T02:01:21.814Z,2.82
2019-02-10T02:03:54.270Z,2.73
2019-02-10T02:06:26.618Z,2.66
2019-02-10T02:08:59.165Z,2.59
2019-02-10T02:11:32.074Z,2.55
2019-02-10T02:14:04.467Z,2.46
2019-02-10T02:16:36.499Z,2.49
2019-02-10T02:19:08.656Z,2.48
2019-02-10T02:21:41.453Z,2.54
2019-02-10T02:24:13.826Z,2.49
2019-02-10T02:26:46.306Z,2.79
2019-02-10T02:29:18.715Z,2.61
2019-02-10T02:31:51.669Z,2.81
2019-02-10T02:34:24.844Z,2.81
2019-02-10T02:36:56.982Z,2.65
2019-02-10T02:39:29.061Z,2.61
2019-02-10T02:42:01.164Z,2.65
2019-02-10T02:44:33.620Z,2.72
2019-02-10T02:47:06.246Z,2.77
2019-02-10T02:49:38.607Z,2.78
2019-02-10T02:52:10.779Z,2.80
2019-02-10T02:54:42.927Z,2.89
2019-02-10T02:57:15.184Z,2.76
2019-02-10T02:59:47.546Z,2.65
2019-02-10T03:02:19.939Z,2.77
2019-02-10T03:04:52.276Z,2.75
2019-02-10T03:07:24.436Z,2.68
2019-02-10T03:09:56.700Z,2.87
2019-02-10T03:12:29.424Z,2.81
2019-02-10T03:15:01.943Z,2.78
2019-02-10T03:17:34.534Z,2.69
2019-02-10T03:20:07.566Z,2.75
2019-02-10T03:22:39.959Z,2.67
2019-02-10T03:25:12.319Z,2.69
2019-02-10T03:27:44.422Z,2.69
2019-02-10T03:30:16.490Z,2.62
2019-02-10T03:32:48.539Z,2.54
2019-02-10T03:35:21.164Z,2.60
2019-02-10T03:37:53.500Z,2.66
2019-02-10T03:40:25.869Z,2.92
2019-02-10T03:42:57.921Z,3.10
2019-02-10T03:45:30.013Z,3.11
2019-02-10T03:48:02.180Z,3.23
2019-02-10T03:50:34.265Z,3.22
2019-02-10T03:53:06.359Z,3.25
2019-02-10T03:55:38.476Z,3.29
2019-02-10T03:58:10.611Z,3.29
2019-02-10T04:00:43.186Z,3.42
2019-02-10T04:03:15.585Z,3.52
2019-02-10T04:05:48.408Z,3.45
2019-02-10T04:08:20.777Z,3.47
2019-02-10T04:10:53.287Z,3.49
2019-02-10T04:13:26.107Z,3.49
2019-02-10T04:15:58.488Z,3.46
2019-02-10T04:18:30.546Z,3.43
2019-02-10T04:21:02.788Z,3.46
2019-02-10T04:23:35.130Z,3.44
2019-02-10T04:26:07.616Z,3.36
2019-02-10T04:28:39.959Z,3.42
2019-02-10T04:31:12.047Z,3.50
2019-02-10T04:33:44.113Z,3.44
2019-02-10T04:36:16.753Z,3.57
2019-02-10T04:38:48.910Z,3.62
2019-02-10T04:41:20.991Z,3.57
2019-02-10T04:43:53.053Z,3.56
2019-02-10T04:46:25.225Z,3.62
2019-02-10T04:48:57.552Z,3.59
2019-02-10T04:51:29.715Z,3.62
2019-02-10T04:54:02.301Z,3.55
2019-02-10T04:56:34.622Z,3.68
2019-02-10T04:59:06.830Z,3.72
2019-02-10T05:01:38.974Z,3.85
2019-02-10T05:04:11.416Z,3.94
2019-02-10T05:06:43.785Z,3.93
2019-02-10T05:09:16.180Z,3.94
2019-02-10T05:11:48.549Z,4.04
2019-02-10T05:14:21.486Z,4.10
2019-02-10T05:16:53.531Z,4.10
2019-02-10T05:19:26.240Z,4.17
2019-02-10T05:21:58.339Z,4.09
2019-02-10T05:24:30.872Z,4.13
2019-02-10T05:27:03.237Z,4.25
2019-02-10T05:29:35.363Z,4.22
2019-02-10T05:32:07.497Z,4.30
2019-02-10T05:34:39.624Z,4.21
2019-02-10T05:37:11.671Z,4.22
2019-02-10T05:39:44.728Z,4.25
2019-02-10T05:42:17.072Z,4.28
2019-02-10T05:44:49.188Z,4.41
2019-02-10T05:47:21.414Z,4.46
2019-02-10T05:49:53.896Z,4.49
2019-02-10T05:52:26.715Z,4.47
2019-02-10T05:54:59.065Z,4.45
2019-02-10T05:57:31.211Z,4.50
2019-02-10T06:00:03.608Z,4.61
2019-02-10T06:02:36.157Z,4.57
2019-02-10T06:05:19.236Z,4.61
2019-02-10T06:07:51.555Z,4.56
2019-02-10T06:10:23.661Z,4.52
2019-02-10T06:12:55.719Z,4.46
2019-02-10T06:15:28.702Z,4.47
2019-02-10T06:18:01.168Z,4.66
2019-02-10T06:20:33.609Z,4.72
2019-02-10T06:23:06.117Z,4.74
2019-02-10T06:25:38.622Z,4.87
2019-02-10T06:28:11.058Z,4.62
2019-02-10T06:30:43.585Z,4.57
2019-02-10T06:33:16.146Z,4.60
2019-02-10T06:35:48.527Z,4.77
2019-02-10T06:38:22.792Z,4.70
2019-02-10T06:40:55.411Z,4.78
2019-02-10T06:43:27.762Z,4.91
2019-02-10T06:45:59.865Z,4.85
2019-02-10T06:48:32.437Z,4.80
2019-02-10T06:51:05.022Z,4.91
2019-02-10T06:53:37.393Z,4.85
2019-02-10T06:56:09.806Z,4.88
2019-02-10T06:58:42.196Z,4.84
2019-02-10T07:01:28.064Z,4.92
2019-02-10T07:04:26.986Z,4.95
2019-02-10T07:06:59.640Z,5.04
2019-02-10T07:09:32.195Z,5.04
2019-02-10T07:12:49.403Z,5.00
2019-02-10T07:16:15.955Z,5.18
2019-02-10T07:19:42.615Z,5.35
2019-02-10T07:22:56.205Z,5.34
2019-02-10T07:26:02.323Z,5.32
2019-02-10T07:29:03.494Z,5.29
2019-02-10T07:31:55.139Z,5.32
2019-02-10T07:35:27.416Z,5.45
2019-02-10T07:38:41.153Z,5.45
2019-02-10T07:41:53.172Z,5.43
2019-02-10T07:45:17.117Z,5.40
2019-02-10T07:48:35.988Z,5.44
2019-02-10T07:52:08.789Z,5.49
2019-02-10T07:55:52.361Z,5.52
2019-02-10T07:59:25.454Z,5.66
2019-02-10T08:03:13.360Z,5.72
2019-02-10T08:06:22.565Z,5.73
2019-02-10T08:09:59.639Z,5.75
2019-02-10T08:13:33.079Z,5.83
2019-02-10T08:17:18.998Z,5.87
2019-02-10T08:20:50.074Z,5.89
2019-02-10T08:24:22.082Z,5.93
2019-02-10T08:27:49.017Z,6.04
2019-02-10T08:31:19.365Z,6.08
2019-02-10T08:34:48.206Z,6.03
2019-02-10T08:38:28.399Z,5.98
2019-02-10T08:42:04.387Z,5.92
2019-02-10T08:45:18.154Z,5.97
2019-02-10T08:48:50.559Z,5.82
2019-02-10T08:51:54.314Z,5.91
2019-02-10T08:54:29.215Z,5.99
2019-02-10T08:57:01.865Z,6.15
2019-02-10T08:59:33.940Z,6.15
2019-02-10T09:02:06.581Z,6.36
2019-02-10T09:04:38.651Z,6.47
2019-02-10T09:07:11.280Z,6.48
2019-02-10T09:09:43.719Z,6.51
2019-02-10T09:12:16.046Z,6.51
2019-02-10T09:14:48.106Z,6.55
2019-02-10T09:17:20.173Z,6.51
2019-02-10T09:19:52.863Z,6.60
2019-02-10T09:22:25.308Z,6.60
2019-02-10T09:24:57.868Z,6.57
2019-02-10T09:27:30.197Z,6.62
2019-02-10T09:30:02.346Z,6.63
2019-02-10T09:32:34.877Z,6.68
2019-02-10T09:35:08.131Z,6.72
2019-02-10T09:37:40.247Z,6.94
2019-02-10T09:40:12.804Z,6.88
2019-02-10T09:42:45.399Z,7.02
2019-02-10T09:45:17.834Z,7.06
2019-02-10T09:47:50.235Z,7.18
2019-02-10T09:50:23.262Z,7.23
2019-02-10T09:52:55.652Z,7.33
2019-02-10T09:55:27.731Z,7.33
2019-02-10T09:57:59.867Z,7.38
2019-02-10T10:00:32.578Z,7.42
2019-02-10T10:03:05.177Z,7.57
2019-02-10T10:05:37.591Z,7.57
2019-02-10T10:08:10.035Z,7.58
2019-02-10T10:10:42.363Z,7.58
2019-02-10T10:13:14.884Z,7.60
2019-02-10T10:15:50.467Z,7.70
2019-02-10T10:18:23.180Z,7.78
2019-02-10T10:20:55.626Z,7.77
2019-02-10T10:23:27.958Z,7.81
2019-02-10T10:26:00.016Z,7.81
2019-02-10T10:28:34.270Z,7.86
2019-02-10T10:31:12.760Z,7.95
2019-02-10T10:33:45.387Z,7.98
2019-02-10T10:36:17.928Z,8.06
2019-02-10T10:38:50.278Z,8.08
2019-02-10T10:41:22.805Z,8.10
2019-02-10T10:43:55.144Z,8.08
2019-02-10T10:46:27.224Z,8.13
2019-02-10T10:48:59.392Z,8.19
2019-02-10T10:51:31.798Z,8.18
2019-02-10T10:54:04.584Z,8.20
2019-02-10T10:56:36.959Z,8.18
2019-02-10T10:59:09.736Z,8.15
2019-02-10T11:01:42.103Z,8.26
2019-02-10T11:04:14.719Z,8.28
2019-02-10T11:06:47.064Z,8.41
2019-02-10T11:09:19.152Z,8.48
2019-02-10T11:11:52.030Z,8.43
2019-02-10T11:14:24.250Z,8.58
2019-02-10T11:16:56.401Z,8.63
2019-02-10T11:19:28.531Z,8.63
2019-02-10T11:22:00.607Z,8.61
2019-02-10T11:24:32.680Z,8.71
2019-02-10T11:27:04.898Z,8.85
2019-02-10T11:29:37.157Z,8.94
2019-02-10T11:32:09.514Z,9.12
2019-02-10T11:34:46.218Z,9.41
2019-02-10T11:37:16.210Z,9.45
2019-02-10T11:39:48.569Z,9.42
2019-02-10T11:42:20.897Z,9.30
2019-02-10T11:44:52.950Z,9.56
2019-02-10T11:47:25.723Z,9.55
2019-02-10T11:49:58.131Z,9.55
2019-02-10T11:52:30.282Z,9.55
2019-02-10T11:55:02.656Z,9.84
2019-02-10T11:57:35.350Z,9.92
2019-02-10T12:00:09.538Z,9.75
2019-02-10T12:02:42.529Z,9.93
2019-02-10T12:05:15.321Z,9.99
2019-02-10T12:07:48.056Z,10.06
2019-02-10T12:10:20.378Z,10.10
2019-02-10T12:12:53.372Z,10.19
2019-02-10T12:15:24.436Z,10.13
2019-02-10T12:17:56.462Z,10.23
2019-02-10T12:20:28.823Z,10.42
2019-02-10T12:23:01.171Z,10.31
2019-02-10T12:25:33.229Z,10.32
2019-02-10T12:28:05.308Z,10.21
2019-02-10T12:30:37.368Z,10.24
2019-02-10T12:33:09.442Z,10.19
2019-02-10T12:35:41.558Z,10.42
2019-02-10T12:38:13.712Z,10.66
2019-02-10T12:40:45.764Z,10.74
2019-02-10T12:43:18.121Z,10.72
2019-02-10T12:45:50.447Z,10.67
2019-02-10T12:48:23.126Z,10.67
2019-02-10T12:50:55.456Z,10.47
2019-02-10T12:53:27.523Z,10.50
2019-02-10T12:55:59.618Z,10.50
2019-02-10T12:58:32.356Z,10.36
2019-02-10T13:01:04.778Z,10.37
2019-02-10T13:03:37.222Z,10.30
2019-02-10T13:06:09.636Z,10.37
2019-02-10T13:08:41.987Z,10.42
2019-02-10T13:11:14.049Z,10.43
2019-02-10T13:13:46.190Z,10.42
2019-02-10T13:16:18.575Z,10.36
2019-02-10T13:18:51.157Z,10.44
2019-02-10T13:21:23.648Z,10.55
2019-02-10T13:23:56.150Z,10.53
2019-02-10T13:26:28.849Z,10.56
2019-02-10T13:29:01.202Z,10.53
2019-02-10T13:31:33.593Z,10.52
2019-02-10T13:34:06.228Z,10.51
2019-02-10T13:36:38.657Z,10.47
2019-02-10T13:39:11.930Z,10.39
2019-02-10T13:41:42.001Z,10.36
2019-02-10T13:44:14.650Z,10.40
2019-02-10T13:46:47.077Z,10.44
2019-02-10T13:49:19.474Z,10.39
2019-02-10T13:51:51.831Z,10.37
2019-02-10T13:54:24.179Z,10.40
2019-02-10T13:56:56.522Z,10.39
2019-02-10T13:59:28.609Z,10.56
2019-02-10T14:02:01.034Z,10.72
2019-02-10T14:04:33.703Z,10.66
2019-02-10T14:07:06.035Z,10.56
2019-02-10T14:09:38.103Z,10.67
2019-02-10T14:12:10.213Z,10.60
2019-02-10T14:14:42.289Z,10.57
2019-02-10T14:17:14.364Z,10.58
2019-02-10T14:19:46.910Z,10.62
2019-02-10T14:22:19.591Z,10.44
2019-02-10T14:24:51.981Z,10.40
2019-02-10T14:27:25.220Z,10.52
2019-02-10T14:29:56.229Z,10.41
2019-02-10T14:32:28.465Z,10.32
2019-02-10T14:35:00.813Z,10.20
2019-02-10T14:37:33.224Z,10.09
2019-02-10T14:40:08.078Z,9.93
2019-02-10T14:42:40.729Z,9.84
2019-02-10T14:45:13.263Z,9.92
2019-02-10T14:47:46.068Z,9.84
2019-02-10T14:50:18.858Z,9.70
2019-02-10T14:52:51.174Z,9.67
2019-02-10T14:55:23.215Z,9.49
2019-02-10T14:57:55.369Z,9.40
2019-02-10T15:00:27.712Z,9.44
2019-02-10T15:02:59.887Z,9.33
2019-02-10T15:05:32.226Z,9.29
2019-02-10T15:08:04.287Z,9.23
2019-02-10T15:10:41.761Z,9.21
2019-02-10T15:13:11.537Z,9.15
2019-02-10T15:15:42.528Z,9.08
2019-02-10T15:18:15.044Z,9.10
2019-02-10T15:20:47.368Z,8.95
2019-02-10T15:23:19.481Z,8.91
2019-02-10T15:25:53.926Z,8.87
2019-02-10T15:28:26.161Z,8.76
2019-02-10T15:30:58.964Z,8.70
2019-02-10T15:33:31.363Z,8.72
2019-02-10T15:36:03.680Z,8.70
2019-02-10T15:38:35.753Z,8.60
2019-02-10T15:41:08.535Z,8.56
2019-02-10T15:43:41.178Z,8.51
2019-02-10T15:46:13.792Z,8.52
2019-02-10T15:48:46.446Z,8.53
2019-02-10T15:51:19.166Z,8.42
2019-02-10T15:53:51.763Z,8.37
2019-02-10T15:56:24.120Z,8.38
2019-02-10T15:58:56.799Z,8.27
2019-02-10T16:01:29.110Z,8.35
2019-02-10T16:04:01.172Z,8.26
2019-02-10T16:06:33.481Z,8.33
2019-02-10T16:09:06.512Z,8.33
2019-02-10T16:11:38.882Z,8.27
2019-02-10T16:14:11.235Z,8.23
2019-02-10T16:16:43.841Z,8.11
2019-02-10T16:19:16.594Z,8.23
2019-02-10T16:21:48.916Z,8.23
2019-02-10T16:24:21.336Z,8.25
2019-02-10T16:26:54.040Z,8.34
2019-02-10T16:29:26.782Z,8.29
2019-02-10T16:31:59.511Z,8.17
2019-02-10T16:34:31.958Z,8.10
2019-02-10T16:37:05.054Z,8.07
2019-02-10T16:39:36.120Z,8.05
2019-02-10T16:42:08.080Z,8.05
2019-02-10T16:44:40.442Z,8.03
2019-02-10T16:47:12.858Z,7.99
2019-02-10T16:49:45.191Z,8.02
2019-02-10T16:52:17.386Z,8.04
2019-02-10T16:54:49.810Z,7.88
2019-02-10T16:57:22.618Z,7.93
2019-02-10T16:59:55.234Z,7.93
2019-02-10T17:02:27.569Z,7.90
2019-02-10T17:05:00.335Z,7.83
2019-02-10T17:07:32.640Z,7.71
2019-02-10T17:10:04.742Z,7.63
2019-02-10T17:12:36.886Z,7.59
2019-02-10T17:15:10.908Z,7.47
2019-02-10T17:17:44.329Z,7.36
2019-02-10T17:20:17.202Z,7.26
2019-02-10T17:22:49.374Z,7.13
2019-02-10T17:25:22.024Z,7.03
2019-02-10T17:27:54.698Z,6.96
2019-02-10T17:30:27.055Z,6.88
2019-02-10T17:32:59.137Z,6.88
2019-02-10T17:35:31.384Z,6.87
2019-02-10T17:38:03.998Z,6.82
2019-02-10T17:40:41.412Z,6.82
2019-02-10T17:43:14.039Z,6.75
2019-02-10T17:45:46.524Z,6.67
2019-02-10T17:48:18.912Z,6.63
2019-02-10T17:50:50.994Z,6.58
2019-02-10T17:53:23.354Z,6.63
2019-02-10T17:55:55.688Z,6.76
2019-02-10T17:58:27.767Z,6.70
2019-02-10T18:00:59.842Z,6.61
2019-02-10T18:03:32.809Z,6.56
2019-02-10T18:06:05.588Z,6.51
2019-02-10T18:08:37.819Z,6.40
2019-02-10T18:11:10.141Z,6.44
2019-02-10T18:13:42.714Z,6.44
2019-02-10T18:16:33.106Z,6.46
2019-02-10T18:19:11.622Z,6.46
2019-02-10T18:22:03.113Z,6.40
2019-02-10T18:25:07.383Z,6.53
2019-02-10T18:27:56.457Z,6.50
2019-02-10T18:30:38.145Z,6.44
2019-02-10T18:33:35.868Z,6.42
2019-02-10T18:36:26.399Z,6.36
2019-02-10T18:39:33.483Z,6.31
2019-02-10T18:42:28.715Z,6.36
2019-02-10T18:45:29.351Z,6.23
2019-02-10T18:48:09.003Z,6.29
2019-02-10T18:51:01.801Z,6.25
2019-02-10T18:53:53.305Z,6.27
2019-02-10T18:56:39.199Z,6.26
2019-02-10T18:59:28.391Z,6.21
2019-02-10T19:02:20.217Z,6.18
2019-02-10T19:05:21.327Z,6.23
2019-02-10T19:08:18.584Z,6.19
2019-02-10T19:10:57.439Z,6.08
2019-02-10T19:13:43.106Z,6.16
2019-02-10T19:16:50.325Z,6.17
2019-02-10T19:19:42.959Z,6.16
2019-02-10T19:22:50.256Z,6.15
2019-02-10T19:25:40.181Z,6.14
2019-02-10T19:28:31.845Z,6.05
2019-02-10T19:31:26.360Z,6.03
2019-02-10T19:34:28.639Z,6.06
2019-02-10T19:37:20.475Z,6.04
2019-02-10T19:40:17.899Z,5.94
2019-02-10T19:43:16.799Z,5.78
2019-02-10T19:46:08.418Z,5.79
2019-02-10T19:48:59.643Z,5.81
2019-02-10T19:51:52.533Z,5.82
2019-02-10T19:54:33.509Z,5.81
2019-02-10T19:57:28.250Z,5.78
2019-02-10T20:00:19.710Z,5.68
2019-02-10T20:03:11.024Z,5.65
2019-02-10T20:06:08.739Z,5.57
2019-02-10T20:09:00.297Z,5.38
2019-02-10T20:11:52.302Z,5.38
2019-02-10T20:14:49.860Z,5.33
2019-02-10T20:17:39.268Z,5.33
2019-02-10T20:20:39.978Z,5.23
2019-02-10T20:23:32.122Z,5.18
2019-02-10T20:26:23.306Z,5.25
2019-02-10T20:29:15.142Z,5.21
2019-02-10T20:32:06.014Z,5.21
2019-02-10T20:34:52.446Z,5.23
2019-02-10T20:37:42.451Z,5.14
2019-02-10T20:40:27.467Z,5.16
2019-02-10T20:43:08.983Z,5.19
2019-02-10T20:46:12.889Z,5.23
2019-02-10T20:49:05.074Z,5.19
2019-02-10T20:51:46.794Z,5.21
2019-02-10T20:54:38.691Z,5.16
2019-02-10T20:57:20.633Z,5.13
2019-02-10T21:00:21.216Z,5.16
2019-02-10T21:03:05.640Z,5.16
2019-02-10T21:06:00.618Z,5.12
2019-02-10T21:09:07.740Z,5.06
2019-02-10T21:11:57.777Z,5.04
2019-02-10T21:14:46.415Z,5.08
2019-02-10T21:17:27.874Z,5.13
2019-02-10T21:20:31.595Z,4.97
2019-02-10T21:23:28.396Z,5.00
2019-02-10T21:26:20.019Z,5.08
2019-02-10T21:29:02.853Z,5.13
2019-02-10T21:31:52.570Z,4.95
2019-02-10T21:34:40.206Z,5.16
2019-02-10T21:37:37.803Z,5.10
2019-02-10T21:40:21.791Z,5.13
2019-02-10T21:43:13.580Z,5.19
2019-02-10T21:46:05.268Z,5.11
2019-02-10T21:48:50.940Z,5.19
2019-02-10T21:51:23.654Z,5.18
2019-02-10T21:53:55.965Z,5.05
2019-02-10T21:56:28.952Z,4.93
2019-02-10T21:59:00.180Z,4.91
2019-02-10T22:01:32.232Z,4.90
2019-02-10T22:04:04.667Z,4.89
2019-02-10T22:06:36.999Z,4.72
2019-02-10T22:09:09.649Z,4.72
2019-02-10T22:11:41.981Z,4.62
2019-02-10T22:14:14.861Z,4.55
2019-02-10T22:16:53.759Z,4.53
2019-02-10T22:19:26.748Z,4.54
2019-02-10T22:21:59.534Z,4.42
2019-02-10T22:24:31.966Z,4.35
2019-02-10T22:27:04.684Z,4.28
2019-02-10T22:29:37.040Z,4.27
2019-02-10T22:32:09.430Z,4.31
2019-02-10T22:34:41.765Z,4.28
2019-02-10T22:37:13.838Z,4.35
2019-02-10T22:39:46.040Z,4.30
2019-02-10T22:42:18.394Z,4.31
2019-02-10T22:44:50.502Z,4.43
2019-02-10T22:47:22.817Z,4.36
2019-02-10T22:49:55.120Z,4.36
2019-02-10T22:52:27.549Z,4.51
2019-02-10T22:55:00.271Z,4.48
2019-02-10T22:57:32.600Z,4.45
2019-02-10T23:00:07.033Z,4.49
2019-02-10T23:02:39.665Z,4.46
2019-02-10T23:05:11.735Z,4.50
2019-02-10T23:07:44.436Z,4.45
2019-02-10T23:10:16.760Z,4.51
2019-02-10T23:12:53.734Z,4.53
2019-02-10T23:15:23.534Z,4.56
2019-02-10T23:17:55.868Z,4.51
2019-02-10T23:20:28.270Z,4.53
2019-02-10T23:23:00.613Z,4.53
2019-02-10T23:25:32.697Z,4.43
2019-02-10T23:28:04.972Z,4.43
2019-02-10T23:30:37.685Z,4.45
2019-02-10T23:33:10.110Z,4.37
2019-02-10T23:35:42.417Z,4.45
2019-02-10T23:38:14.587Z,4.43
2019-02-10T23:40:46.658Z,4.41
2019-02-10T23:43:19.362Z,4.37
2019-02-10T23:45:51.895Z,4.35
2019-02-10T23:48:24.799Z,4.43
2019-02-10T23:50:57.467Z,4.40
2019-02-10T23:53:30.244Z,4.47
2019-02-10T23:56:02.557Z,4.41
2019-02-10T23:58:35.155Z,4.44
